Time;durP1;ratioP1;P1;durP2;ratioP2;P2;SDS_P1;SDS_P2;PMS_P1;PMS_P2;Temp;Humidity;BMP_temperature;BMP_pressure;BME280_temperature;BME280_humidity;BME280_pressure;Samples;Min_cycle;Max_cycle;Signal;HPM_P1;HPM_P2
2020/12/07 00:01:15;;;;;;;35.90;22.02;;;3.40;99.90;;;;;;5038004;28;20045;-85
2020/12/07 00:03:44;;;;;;;15.90;11.50;;;3.40;99.90;;;;;;5041349;28;20437;-85
2020/12/07 00:06:18;;;;;;;16.57;11.60;;;3.40;99.90;;;;;;5039382;28;20497;-85
2020/12/07 00:08:47;;;;;;;17.85;11.25;;;3.40;99.90;;;;;;5041845;28;20060;-86
2020/12/07 00:11:16;;;;;;;15.35;10.23;;;3.40;99.90;;;;;;5038572;28;20139;-85
2020/12/07 00:13:45;;;;;;;15.02;11.07;;;3.40;99.90;;;;;;5037009;28;20075;-86
2020/12/07 00:16:12;;;;;;;19.83;11.93;;;3.30;99.90;;;;;;5038267;28;20066;-85
2020/12/07 00:18:41;;;;;;;17.52;11.60;;;3.40;99.90;;;;;;5041116;28;20295;-86
2020/12/07 00:21:10;;;;;;;15.65;12.45;;;3.40;99.90;;;;;;5042167;28;20452;-85
2020/12/07 00:23:39;;;;;;;15.23;11.98;;;3.40;99.90;;;;;;5036960;28;20133;-86
2020/12/07 00:26:10;;;;;;;18.33;11.90;;;3.40;99.90;;;;;;5029662;28;20048;-86
2020/12/07 00:28:39;;;;;;;15.30;11.43;;;3.40;99.90;;;;;;5034423;28;20372;-86
2020/12/07 00:31:09;;;;;;;15.73;10.77;;;3.40;99.90;;;;;;5023347;28;20050;-86
2020/12/07 00:33:38;;;;;;;15.38;11.18;;;3.50;99.90;;;;;;5035864;28;20064;-85
2020/12/07 00:36:08;;;;;;;17.67;11.20;;;3.50;99.90;;;;;;5038382;28;20053;-85
2020/12/07 00:38:38;;;;;;;11.73;10.25;;;3.50;99.90;;;;;;5055933;28;20106;-86
2020/12/07 00:41:09;;;;;;;13.40;10.05;;;3.60;99.90;;;;;;5045067;28;20129;-86
2020/12/07 00:43:37;;;;;;;;;;;3.60;99.90;;;;;;5045609;28;20055;-86
2020/12/07 00:46:07;;;;;;;13.77;10.30;;;3.60;99.90;;;;;;5055132;28;19921;-86
2020/12/07 00:48:37;;;;;;;13.48;10.40;;;3.70;99.90;;;;;;5044844;28;20049;-86
2020/12/07 00:51:06;;;;;;;13.88;10.55;;;3.70;99.90;;;;;;5045256;28;20048;-86
2020/12/07 00:53:34;;;;;;;14.57;9.88;;;3.70;99.90;;;;;;5055866;28;20127;-85
2020/12/07 00:56:03;;;;;;;15.07;11.15;;;3.70;99.90;;;;;;5045394;28;20140;-86
2020/12/07 00:58:30;;;;;;;16.33;10.57;;;3.80;99.90;;;;;;5052908;28;20052;-85
2020/12/07 01:00:59;;;;;;;20.48;10.63;;;3.80;99.90;;;;;;5055018;28;20040;-85
2020/12/07 01:03:27;;;;;;;19.20;10.40;;;3.80;99.90;;;;;;5040525;28;20474;-86
2020/12/07 01:05:57;;;;;;;14.82;10.73;;;3.80;99.90;;;;;;5056270;28;20110;-86
2020/12/07 01:08:25;;;;;;;21.83;11.20;;;3.80;99.90;;;;;;5045416;28;20447;-86
2020/12/07 01:10:57;;;;;;;14.93;10.68;;;3.80;99.90;;;;;;5053825;28;20052;-86
2020/12/07 01:13:25;;;;;;;12.90;10.77;;;3.80;99.90;;;;;;5051953;28;20056;-85
2020/12/07 01:15:55;;;;;;;13.32;10.70;;;3.90;99.90;;;;;;5055023;28;20452;-85
2020/12/07 01:18:24;;;;;;;17.00;11.30;;;3.90;99.90;;;;;;5071063;28;20111;-85
2020/12/07 01:20:52;;;;;;;13.88;10.57;;;3.80;99.90;;;;;;5054465;28;20177;-86
2020/12/07 01:23:21;;;;;;;16.33;10.98;;;3.90;99.90;;;;;;5052608;28;20053;-86
2020/12/07 01:25:49;;;;;;;16.13;10.75;;;3.90;99.90;;;;;;5047869;28;20076;-86
2020/12/07 01:28:19;;;;;;;13.00;10.70;;;3.90;99.90;;;;;;5052804;28;20045;-85
2020/12/07 01:30:47;;;;;;;14.60;10.52;;;3.90;99.90;;;;;;5055623;28;20119;-85
2020/12/07 01:33:15;;;;;;;13.73;10.75;;;3.90;99.90;;;;;;5055509;28;20063;-85
2020/12/07 01:35:45;;;;;;;16.85;10.15;;;3.90;99.90;;;;;;5054023;28;20051;-85
2020/12/07 01:38:16;;;;;;;14.48;10.38;;;3.90;99.90;;;;;;5028654;28;20061;-86
2020/12/07 01:40:44;;;;;;;13.48;9.73;;;3.90;99.90;;;;;;5028307;28;20098;-85
2020/12/07 01:43:12;;;;;;;19.13;10.38;;;3.90;99.90;;;;;;5035685;28;20057;-86
2020/12/07 01:45:42;;;;;;;13.60;10.38;;;3.90;99.90;;;;;;5037740;28;20083;-86
2020/12/07 01:48:11;;;;;;;16.83;10.60;;;4.00;99.90;;;;;;5035287;28;20386;-85
2020/12/07 01:50:41;;;;;;;12.80;9.52;;;4.00;99.90;;;;;;5021439;28;20057;-85
2020/12/07 01:53:12;;;;;;;11.38;9.50;;;4.00;99.90;;;;;;5030368;28;20135;-86
2020/12/07 01:55:44;;;;;;;15.40;9.48;;;4.00;99.90;;;;;;5035392;28;20120;-85
2020/12/07 01:58:12;;;;;;;15.50;9.88;;;4.00;99.90;;;;;;5033255;28;20128;-85
2020/12/07 02:00:40;;;;;;;10.60;9.45;;;4.00;99.90;;;;;;5035364;28;20127;-85
2020/12/07 02:03:12;;;;;;;12.75;9.57;;;4.10;99.90;;;;;;5018385;28;20073;-85
2020/12/07 02:05:42;;;;;;;12.95;10.02;;;4.10;99.90;;;;;;5036403;28;20140;-85
2020/12/07 02:08:18;;;;;;;11.00;9.25;;;4.10;99.90;;;;;;5036869;28;20466;-86
2020/12/07 02:10:46;;;;;;;18.02;9.88;;;4.10;99.90;;;;;;5031103;28;20474;-85
2020/12/07 02:13:15;;;;;;;13.10;9.57;;;4.10;99.90;;;;;;5032935;28;20050;-85
2020/12/07 02:15:43;;;;;;;12.10;8.70;;;4.10;99.90;;;;;;5021892;28;20390;-85
2020/12/07 02:18:11;;;;;;;11.43;9.15;;;4.10;99.90;;;;;;5035636;28;20049;-85
2020/12/07 02:20:47;;;;;;;11.23;8.93;;;4.20;99.90;;;;;;5036897;28;20052;-86
2020/12/07 02:23:17;;;;;;;11.23;9.02;;;4.20;99.90;;;;;;5031225;28;20111;-85
2020/12/07 02:25:46;;;;;;;13.13;9.90;;;4.20;99.90;;;;;;5026394;28;20047;-86
2020/12/07 02:28:15;;;;;;;10.63;8.48;;;4.20;99.90;;;;;;5021359;28;20465;-85
2020/12/07 02:30:44;;;;;;;11.68;9.27;;;4.20;99.90;;;;;;5022549;28;20545;-85
2020/12/07 02:33:12;;;;;;;13.88;9.70;;;4.20;99.90;;;;;;5035773;28;20379;-85
2020/12/07 02:35:43;;;;;;;13.10;9.52;;;4.30;99.90;;;;;;5033753;28;20474;-86
2020/12/07 02:38:12;;;;;;;11.90;8.77;;;4.30;99.90;;;;;;5042483;28;20175;-85
2020/12/07 02:40:41;;;;;;;15.40;9.55;;;4.30;99.90;;;;;;5060567;28;20104;-85
2020/12/07 02:43:09;;;;;;;15.18;9.60;;;4.30;99.90;;;;;;5067471;28;20465;-85
2020/12/07 02:45:37;;;;;;;11.88;10.07;;;4.30;99.90;;;;;;5069493;28;20478;-85
2020/12/07 02:48:08;;;;;;;14.25;9.82;;;4.30;99.90;;;;;;5069739;28;20485;-85
2020/12/07 02:50:36;;;;;;;12.73;9.70;;;4.30;99.90;;;;;;5055082;28;20095;-86
2020/12/07 02:53:05;;;;;;;15.38;10.43;;;4.30;99.90;;;;;;5059326;28;20057;-86
2020/12/07 02:55:34;;;;;;;12.02;9.02;;;4.30;99.90;;;;;;5059441;28;20068;-86
2020/12/07 02:58:02;;;;;;;13.07;9.35;;;4.30;99.90;;;;;;5069868;28;20059;-86
2020/12/07 03:00:31;;;;;;;11.48;9.52;;;4.30;99.90;;;;;;5055635;28;20060;-85
2020/12/07 03:03:00;;;;;;;11.65;9.27;;;4.30;99.90;;;;;;5057530;28;20049;-86
2020/12/07 03:05:28;;;;;;;10.70;8.90;;;4.30;99.90;;;;;;5065844;28;20048;-86
2020/12/07 03:07:58;;;;;;;11.98;9.13;;;4.30;99.90;;;;;;5067275;28;20399;-85
2020/12/07 03:10:26;;;;;;;12.82;10.10;;;4.30;99.90;;;;;;5066890;28;20098;-85
2020/12/07 03:12:55;;;;;;;12.60;9.15;;;4.30;99.90;;;;;;5069126;28;20080;-86
2020/12/07 03:15:25;;;;;;;14.50;9.50;;;4.30;99.90;;;;;;5053778;28;20481;-85
2020/12/07 03:17:54;;;;;;;13.75;10.15;;;4.30;99.90;;;;;;5067806;28;20052;-86
2020/12/07 03:20:22;;;;;;;14.40;9.48;;;4.30;99.90;;;;;;5067651;28;20130;-86
2020/12/07 03:22:51;;;;;;;13.80;10.00;;;4.30;99.90;;;;;;5068683;28;20425;-86
2020/12/07 03:25:20;;;;;;;;;;;4.30;99.90;;;;;;5067733;28;20064;-87
2020/12/07 03:27:49;;;;;;;13.27;9.82;;;4.30;99.90;;;;;;5069469;28;20014;-87
2020/12/07 03:30:20;;;;;;;13.63;9.95;;;4.30;99.90;;;;;;5068072;28;20052;-87
2020/12/07 03:32:48;;;;;;;;;;;4.30;99.90;;;;;;5068879;28;20441;-87
2020/12/07 03:35:17;;;;;;;14.98;9.82;;;4.30;99.90;;;;;;5061475;28;19921;-87
2020/12/07 03:37:46;;;;;;;;;;;4.30;99.90;;;;;;5055524;28;20107;-87
2020/12/07 03:40:14;;;;;;;;;;;4.30;99.90;;;;;;5056078;28;19929;-87
2020/12/07 03:42:43;;;;;;;13.15;9.70;;;4.30;99.90;;;;;;5071482;28;19942;-87
2020/12/07 03:45:13;;;;;;;16.38;10.43;;;4.20;99.90;;;;;;5067905;28;20055;-86
2020/12/07 03:47:42;;;;;;;15.30;11.15;;;4.20;99.90;;;;;;5066898;28;20060;-87
2020/12/07 03:50:10;;;;;;;15.15;11.43;;;4.20;99.90;;;;;;5058705;28;20521;-86
2020/12/07 03:52:38;;;;;;;16.75;11.00;;;4.30;99.90;;;;;;5057300;28;20063;-86
2020/12/07 03:55:08;;;;;;;15.57;11.32;;;4.20;99.90;;;;;;5069234;28;20077;-86
2020/12/07 03:57:38;;;;;;;21.65;11.98;;;4.20;99.90;;;;;;5069447;28;20060;-86
2020/12/07 04:00:08;;;;;;;15.07;12.05;;;4.30;99.90;;;;;;5069105;28;20049;-86
2020/12/07 04:02:39;;;;;;;17.45;11.77;;;4.20;99.90;;;;;;5056449;28;20102;-87
2020/12/07 04:05:17;;;;;;;17.40;12.40;;;4.20;99.90;;;;;;5056681;28;20075;-86
2020/12/07 04:07:48;;;;;;;15.45;12.45;;;4.20;99.90;;;;;;5063344;28;20052;-87
2020/12/07 04:10:16;;;;;;;22.35;12.80;;;4.20;99.90;;;;;;5067860;28;20053;-87
2020/12/07 04:12:45;;;;;;;18.25;13.10;;;4.20;99.90;;;;;;5069426;28;20090;-87
2020/12/07 04:15:13;;;;;;;17.63;14.32;;;4.20;99.90;;;;;;5052885;28;20467;-87
2020/12/07 04:17:42;;;;;;;18.83;13.82;;;4.20;99.90;;;;;;5066202;28;20106;-87
2020/12/07 04:20:13;;;;;;;18.20;14.07;;;4.20;99.90;;;;;;5068854;28;20059;-87
2020/12/07 04:22:43;;;;;;;16.90;13.27;;;4.20;99.90;;;;;;5070919;28;20056;-87
2020/12/07 04:25:15;;;;;;;21.60;14.63;;;4.20;99.90;;;;;;5066688;28;20079;-87
2020/12/07 04:27:44;;;;;;;18.42;15.43;;;4.30;99.90;;;;;;5054121;28;20132;-87
2020/12/07 04:30:13;;;;;;;20.52;14.88;;;4.30;99.90;;;;;;5067262;28;20402;-87
2020/12/07 04:32:42;;;;;;;21.55;14.57;;;4.30;99.90;;;;;;5073259;28;20455;-86
2020/12/07 04:35:12;;;;;;;18.33;13.93;;;4.30;99.90;;;;;;5070622;28;20053;-87
2020/12/07 04:37:41;;;;;;;20.63;14.35;;;4.30;99.90;;;;;;5064682;28;20456;-87
2020/12/07 04:40:09;;;;;;;20.95;14.10;;;4.40;99.90;;;;;;5059859;28;20095;-86
2020/12/07 04:42:41;;;;;;;18.33;13.90;;;4.40;99.90;;;;;;5059351;28;20044;-87
2020/12/07 04:45:10;;;;;;;22.15;14.25;;;4.40;99.90;;;;;;5056768;28;20057;-86
2020/12/07 04:47:39;;;;;;;14.85;11.75;;;4.40;99.90;;;;;;5071117;28;20049;-86
2020/12/07 04:50:07;;;;;;;21.17;13.63;;;4.40;99.90;;;;;;5060823;28;20049;-86
2020/12/07 04:52:36;;;;;;;19.58;13.82;;;4.40;99.90;;;;;;5055764;28;20056;-87
2020/12/07 04:55:05;;;;;;;19.20;14.02;;;4.50;99.90;;;;;;5060021;28;20051;-86
2020/12/07 04:57:35;;;;;;;18.52;13.80;;;4.50;99.90;;;;;;5071029;28;20437;-86
2020/12/07 05:00:06;;;;;;;23.65;14.77;;;4.50;99.90;;;;;;5071846;28;20048;-86
2020/12/07 05:02:39;;;;;;;20.05;14.32;;;4.60;99.90;;;;;;5060087;28;20094;-86
2020/12/07 05:05:09;;;;;;;21.33;13.80;;;4.60;99.90;;;;;;5065997;28;20056;-86
2020/12/07 05:07:39;;;;;;;20.58;13.20;;;4.60;99.90;;;;;;5068692;28;20044;-86
2020/12/07 05:10:15;;;;;;;19.95;14.40;;;4.70;99.90;;;;;;5072299;28;20127;-86
2020/12/07 05:12:47;;;;;;;26.65;14.32;;;4.70;99.90;;;;;;5043550;28;20045;-86
2020/12/07 05:15:17;;;;;;;19.42;13.50;;;4.70;99.90;;;;;;5055873;28;20060;-86
2020/12/07 05:17:46;;;;;;;19.98;13.32;;;4.70;99.90;;;;;;5069873;28;20057;-86
2020/12/07 05:20:15;;;;;;;18.95;13.60;;;4.70;99.90;;;;;;5064582;28;20060;-86
2020/12/07 05:22:45;;;;;;;21.60;14.02;;;4.80;99.90;;;;;;5064493;28;20071;-86
2020/12/07 05:25:17;;;;;;;18.95;14.30;;;4.80;99.90;;;;;;5068539;28;20540;-86
2020/12/07 05:27:49;;;;;;;24.42;14.45;;;4.80;99.90;;;;;;5058186;28;20053;-86
2020/12/07 05:30:23;;;;;;;19.73;13.75;;;4.90;99.90;;;;;;5085785;28;20444;-86
2020/12/07 05:32:52;;;;;;;23.88;14.60;;;4.90;99.90;;;;;;5071953;28;20048;-86
2020/12/07 05:35:20;;;;;;;22.52;13.70;;;4.90;99.90;;;;;;5074229;28;20052;-85
2020/12/07 05:37:49;;;;;;;21.00;14.00;;;4.90;99.90;;;;;;5063324;28;20057;-85
2020/12/07 05:40:18;;;;;;;21.50;14.48;;;4.90;99.90;;;;;;5057376;28;20049;-85
2020/12/07 05:42:46;;;;;;;20.92;14.23;;;5.00;99.90;;;;;;5072680;28;20075;-85
2020/12/07 05:45:15;;;;;;;16.20;11.82;;;5.00;99.90;;;;;;5070411;28;20060;-85
2020/12/07 05:47:46;;;;;;;18.15;13.60;;;5.00;99.90;;;;;;5073889;28;20052;-85
2020/12/07 05:50:14;;;;;;;27.17;15.13;;;5.00;99.90;;;;;;5058948;28;20433;-85
2020/12/07 05:52:48;;;;;;;16.83;13.45;;;5.10;99.90;;;;;;5055966;28;20045;-85
2020/12/07 05:55:18;;;;;;;20.52;14.13;;;5.10;99.90;;;;;;5059438;28;20049;-85
2020/12/07 05:58:11;;;;;;;17.80;13.82;;;5.20;99.90;;;;;;5057394;28;20053;-85
2020/12/07 06:00:42;;;;;;;22.45;14.13;;;5.20;99.90;;;;;;5057671;28;20659;-85
2020/12/07 06:03:11;;;;;;;21.17;14.18;;;5.20;99.90;;;;;;5055426;28;20131;-85
2020/12/07 06:05:41;;;;;;;21.85;13.68;;;5.20;99.90;;;;;;5068001;28;20498;-85
2020/12/07 06:08:35;;;;;;;16.10;12.43;;;5.30;99.90;;;;;;5070898;28;20045;-84
2020/12/07 06:11:13;;;;;;;22.65;14.40;;;5.30;99.90;;;;;;5069344;28;20052;-86
2020/12/07 06:13:43;;;;;;;22.55;13.23;;;5.40;99.90;;;;;;5064777;28;20053;-86
2020/12/07 06:16:15;;;;;;;37.60;13.82;;;5.40;99.90;;;;;;5058570;28;20398;-85
2020/12/07 06:18:45;;;;;;;26.17;13.30;;;5.40;99.90;;;;;;5059785;28;20044;-85
2020/12/07 06:21:19;;;;;;;22.45;12.65;;;5.50;99.90;;;;;;5069427;28;20056;-85
2020/12/07 06:23:48;;;;;;;19.52;11.93;;;5.50;99.90;;;;;;5069182;28;20056;-85
2020/12/07 06:26:21;;;;;;;17.65;10.68;;;5.50;99.90;;;;;;5061677;28;20064;-86
2020/12/07 06:28:50;;;;;;;16.67;12.00;;;5.60;99.90;;;;;;5062049;28;20044;-86
2020/12/07 06:31:21;;;;;;;16.95;11.55;;;5.60;99.90;;;;;;5068302;28;20103;-86
2020/12/07 06:33:50;;;;;;;18.95;11.68;;;5.60;99.90;;;;;;5056431;28;20052;-86
2020/12/07 06:36:24;;;;;;;18.13;11.55;;;5.60;99.90;;;;;;5069399;28;20553;-86
2020/12/07 06:38:56;;;;;;;17.63;11.02;;;5.70;99.90;;;;;;5069815;28;20075;-86
2020/12/07 06:41:45;;;;;;;28.27;12.18;;;5.70;99.90;;;;;;5050204;28;20080;-87
2020/12/07 06:44:20;;;;;;;13.27;9.80;;;5.70;99.90;;;;;;5053779;28;20481;-87
2020/12/07 06:47:06;;;;;;;12.63;8.27;;;5.70;99.90;;;;;;5051930;28;20048;-86
2020/12/07 06:52:15;;;;;;;9.65;6.97;;;5.80;99.90;;;;;;5055753;28;20064;-87
2020/12/07 06:57:49;;;;;;;8.38;3.47;;;5.80;99.90;;;;;;5071975;28;20134;-87
2020/12/07 07:00:20;;;;;;;4.72;3.38;;;5.80;99.90;;;;;;5071071;28;20111;-86
2020/12/07 07:02:58;;;;;;;8.05;4.22;;;5.90;99.90;;;;;;5038400;28;20081;-87
2020/12/07 07:05:31;;;;;;;8.70;4.55;;;5.90;99.90;;;;;;5039298;28;20080;-86
2020/12/07 07:08:00;;;;;;;11.88;4.95;;;5.90;99.90;;;;;;5043767;28;20045;-86
2020/12/07 07:10:29;;;;;;;6.80;3.70;;;5.90;99.90;;;;;;5041827;28;20044;-84
2020/12/07 07:12:57;;;;;;;;;;;6.00;99.90;;;;;;5039912;28;20060;-86
2020/12/07 07:15:25;;;;;;;6.88;3.67;;;6.00;99.90;;;;;;5051705;28;19970;-87
2020/12/07 07:17:54;;;;;;;7.05;3.40;;;6.00;99.90;;;;;;5039538;28;20079;-87
2020/12/07 07:20:22;;;;;;;;;;;6.00;99.90;;;;;;5050724;28;20045;-87
2020/12/07 07:22:50;;;;;;;6.60;3.40;;;6.00;99.90;;;;;;5046103;28;20019;-87
2020/12/07 07:25:25;;;;;;;5.32;3.05;;;6.00;99.90;;;;;;5047859;28;20057;-87
2020/12/07 07:30:24;;;;;;;3.47;1.92;;;6.10;99.90;;;;;;5050762;28;20421;-87
2020/12/07 07:32:54;;;;;;;3.83;1.20;;;6.10;99.90;;;;;;5051767;28;20052;-87
2020/12/07 07:35:27;;;;;;;3.45;1.10;;;6.10;99.90;;;;;;5052914;28;20062;-86
2020/12/07 07:37:57;;;;;;;2.78;1.25;;;6.10;99.90;;;;;;5057596;28;20113;-86
2020/12/07 07:40:27;;;;;;;7.65;3.63;;;6.10;99.90;;;;;;5058997;28;20128;-86
2020/12/07 07:43:00;;;;;;;7.88;3.33;;;6.20;99.90;;;;;;5069158;28;22044;-86
2020/12/07 07:45:39;;;;;;;7.00;3.20;;;6.20;99.90;;;;;;5063891;28;20084;-87
2020/12/07 07:48:17;;;;;;;5.63;3.88;;;6.20;99.90;;;;;;5069937;28;20492;-87
2020/12/07 08:15:56;;;;;;;9.70;6.78;;;6.00;99.90;;;;;;5031815;28;20475;-87
2020/12/07 08:18:32;;;;;;;10.65;7.72;;;6.00;99.90;;;;;;5016538;28;20434;-86
2020/12/07 08:21:01;;;;;;;10.40;7.40;;;6.00;99.90;;;;;;5033879;28;20475;-87
2020/12/07 08:23:32;;;;;;;9.63;7.53;;;6.00;99.90;;;;;;5031604;28;20064;-86
2020/12/07 08:26:01;;;;;;;8.98;7.05;;;6.00;99.90;;;;;;5012496;28;20432;-86
2020/12/07 08:28:38;;;;;;;11.30;7.57;;;6.00;99.90;;;;;;5007424;28;20058;-87
2020/12/07 08:31:13;;;;;;;9.13;7.03;;;6.00;99.90;;;;;;5015030;28;20058;-87
2020/12/07 08:34:07;;;;;;;11.00;7.43;;;6.00;99.90;;;;;;5034047;28;20050;-86
2020/12/07 08:36:38;;;;;;;13.57;7.63;;;6.00;99.90;;;;;;5002111;28;20046;-86
2020/12/07 08:39:10;;;;;;;12.75;7.80;;;6.00;99.90;;;;;;5019463;28;20053;-87
2020/12/07 08:41:38;;;;;;;10.40;6.50;;;6.00;99.90;;;;;;5016712;28;20055;-87
2020/12/07 08:44:10;;;;;;;10.23;7.40;;;6.00;99.90;;;;;;5012746;28;20107;-87
2020/12/07 08:46:42;;;;;;;9.75;7.20;;;6.00;99.90;;;;;;5016469;28;20076;-86
2020/12/07 08:49:12;;;;;;;11.00;7.20;;;6.00;99.90;;;;;;5016124;28;20054;-87
2020/12/07 08:51:41;;;;;;;9.57;7.20;;;6.00;99.90;;;;;;5050360;28;20441;-86
2020/12/07 08:54:10;;;;;;;10.07;7.32;;;6.00;99.90;;;;;;5071930;28;20058;-87
2020/12/07 08:56:41;;;;;;;10.73;7.70;;;6.00;99.90;;;;;;5061090;28;20049;-87
2020/12/07 08:59:09;;;;;;;;;;;6.00;99.90;;;;;;5070350;28;20476;-87
2020/12/07 09:01:38;;;;;;;9.45;6.22;;;6.00;99.90;;;;;;5065398;28;19921;-87
2020/12/07 09:04:08;;;;;;;;;;;6.00;99.90;;;;;;5059747;28;20445;-87
2020/12/07 09:06:40;;;;;;;9.50;6.72;;;6.00;99.90;;;;;;5055222;28;19927;-87
2020/12/07 09:09:09;;;;;;;10.60;7.07;;;6.00;99.90;;;;;;5040257;28;20128;-87
2020/12/07 09:11:39;;;;;;;11.00;7.30;;;6.00;99.90;;;;;;5070831;28;20079;-86
2020/12/07 09:14:10;;;;;;;10.57;6.85;;;6.00;99.90;;;;;;5047919;28;20467;-87
2020/12/07 09:16:39;;;;;;;9.65;6.57;;;6.00;99.90;;;;;;5061639;28;20044;-86
2020/12/07 09:19:09;;;;;;;11.68;7.60;;;6.00;99.90;;;;;;5054904;28;20104;-87
2020/12/07 09:21:38;;;;;;;8.02;6.78;;;6.10;99.90;;;;;;5071839;28;20421;-86
2020/12/07 09:24:08;;;;;;;8.52;6.70;;;6.00;99.90;;;;;;5072421;28;20040;-86
2020/12/07 09:26:37;;;;;;;10.40;7.90;;;6.10;99.90;;;;;;5045774;28;20053;-87
2020/12/07 09:29:07;;;;;;;7.50;5.47;;;6.10;99.90;;;;;;5049866;28;20098;-86
2020/12/07 09:31:36;;;;;;;7.60;5.22;;;6.10;99.90;;;;;;5063689;28;20407;-87
2020/12/07 09:34:05;;;;;;;5.47;4.88;;;6.10;99.90;;;;;;5070566;28;20059;-87
2020/12/07 09:36:34;;;;;;;7.15;5.50;;;6.20;99.90;;;;;;5072070;28;20075;-86
2020/12/07 09:39:03;;;;;;;6.22;4.85;;;6.20;99.90;;;;;;5055409;28;20052;-87
2020/12/07 09:41:33;;;;;;;5.22;4.40;;;6.20;99.90;;;;;;5061048;28;20055;-87
2020/12/07 09:44:01;;;;;;;5.50;4.70;;;6.20;99.90;;;;;;5068488;28;20060;-86
2020/12/07 09:46:29;;;;;;;6.20;3.70;;;6.20;99.90;;;;;;5070777;28;20052;-86
2020/12/07 09:49:00;;;;;;;3.80;3.40;;;6.20;99.90;;;;;;5069918;28;20048;-86
2020/12/07 09:51:29;;;;;;;4.53;3.30;;;6.20;99.90;;;;;;5059828;28;20049;-86
2020/12/07 09:53:58;;;;;;;5.90;3.30;;;6.20;99.90;;;;;;5060126;28;20051;-86
2020/12/07 09:56:30;;;;;;;4.10;2.65;;;6.30;99.90;;;;;;5070100;28;20057;-86
2020/12/07 09:58:58;;;;;;;2.92;2.35;;;6.30;99.90;;;;;;5068731;28;20120;-85
2020/12/07 10:01:27;;;;;;;2.33;2.00;;;6.20;99.90;;;;;;5068658;28;20185;-85
2020/12/07 10:03:55;;;;;;;5.57;2.78;;;6.20;99.90;;;;;;5069751;28;20406;-87
2020/12/07 10:06:24;;;;;;;6.07;2.70;;;6.20;99.90;;;;;;5035810;28;20048;-86
2020/12/07 10:08:57;;;;;;;3.53;2.33;;;6.30;99.90;;;;;;5072332;28;20052;-86
2020/12/07 10:11:26;;;;;;;3.78;2.50;;;6.30;99.90;;;;;;5070029;28;20048;-87
2020/12/07 10:13:55;;;;;;;3.67;2.35;;;6.30;99.90;;;;;;5062395;28;20045;-87
2020/12/07 10:16:24;;;;;;;5.15;2.70;;;6.30;99.90;;;;;;5057359;28;20057;-86
2020/12/07 10:18:55;;;;;;;3.65;2.38;;;6.30;99.90;;;;;;5058482;28;20060;-87
2020/12/07 10:21:28;;;;;;;2.50;2.20;;;6.20;99.90;;;;;;5055817;28;20056;-86
2020/12/07 10:23:57;;;;;;;3.10;2.30;;;6.20;99.90;;;;;;5071220;28;20044;-86
2020/12/07 10:26:26;;;;;;;2.38;2.17;;;6.30;99.90;;;;;;5059565;28;20463;-87
2020/12/07 10:28:55;;;;;;;3.22;2.35;;;6.30;99.90;;;;;;5061662;28;20044;-88
2020/12/07 10:31:26;;;;;;;2.38;2.13;;;6.30;99.90;;;;;;5068844;28;20044;-87
2020/12/07 10:33:55;;;;;;;3.33;2.03;;;6.20;99.90;;;;;;5070579;28;20108;-86
2020/12/07 10:36:24;;;;;;;3.28;2.33;;;6.30;99.90;;;;;;5071338;28;20494;-86
2020/12/07 10:38:53;;;;;;;3.67;2.05;;;6.30;99.90;;;;;;5056190;28;20053;-87
2020/12/07 10:41:29;;;;;;;3.88;2.25;;;6.30;99.90;;;;;;5064655;28;20051;-87
2020/12/07 10:43:58;;;;;;;3.53;2.20;;;6.30;99.90;;;;;;5070574;28;20044;-87
2020/12/07 10:46:27;;;;;;;3.65;2.40;;;6.30;99.90;;;;;;5065959;28;20055;-87
2020/12/07 10:48:56;;;;;;;3.42;2.40;;;6.30;99.90;;;;;;5043930;28;20048;-86
2020/12/07 10:51:26;;;;;;;2.72;2.20;;;6.30;99.90;;;;;;5053172;28;20060;-86
2020/12/07 10:53:55;;;;;;;4.30;2.55;;;6.30;99.90;;;;;;5068466;28;20056;-87
2020/12/07 10:56:25;;;;;;;3.70;2.22;;;6.20;99.90;;;;;;5065725;28;20106;-86
2020/12/07 10:58:55;;;;;;;2.70;2.42;;;6.30;99.90;;;;;;5061647;28;20482;-86
2020/12/07 11:01:24;;;;;;;3.40;2.28;;;6.20;99.90;;;;;;5039570;28;20049;-86
2020/12/07 11:03:52;;;;;;;2.35;2.15;;;6.20;99.90;;;;;;5068979;28;20486;-86
2020/12/07 11:06:28;;;;;;;2.72;1.80;;;6.20;99.90;;;;;;5069576;28;20147;-87
2020/12/07 11:08:58;;;;;;;6.55;5.20;;;6.20;99.90;;;;;;5083694;28;20052;-87
2020/12/07 11:11:26;;;;;;;6.38;5.07;;;6.20;99.90;;;;;;5065927;28;20398;-87
2020/12/07 11:13:54;;;;;;;3.70;3.30;;;6.20;99.90;;;;;;5061339;28;20053;-87
2020/12/07 11:16:26;;;;;;;3.55;2.28;;;6.20;99.90;;;;;;5055980;28;20136;-86
2020/12/07 11:18:54;;;;;;;3.90;2.88;;;6.20;99.90;;;;;;5069738;28;20052;-86
2020/12/07 11:21:24;;;;;;;4.47;2.50;;;6.30;99.90;;;;;;5054292;28;20135;-85
2020/12/07 11:23:54;;;;;;;3.35;2.80;;;6.20;99.90;;;;;;5071981;28;20075;-86
2020/12/07 11:26:23;;;;;;;4.25;3.75;;;6.30;99.90;;;;;;5056869;28;20143;-86
2020/12/07 11:28:53;;;;;;;3.00;2.63;;;6.30;99.90;;;;;;5054480;28;20048;-87
2020/12/07 11:31:22;;;;;;;6.33;4.70;;;6.30;99.90;;;;;;5061038;28;20051;-86
2020/12/07 11:33:50;;;;;;;4.30;3.30;;;6.40;99.90;;;;;;5056426;28;20049;-86
2020/12/07 11:36:19;;;;;;;4.57;3.17;;;6.40;99.90;;;;;;5070928;28;20083;-86
2020/12/07 11:46:38;;;;;;;3.42;3.13;;;6.50;99.90;;;;;;5069232;28;20044;-86
2020/12/07 11:49:06;;;;;;;5.15;4.60;;;6.60;99.90;;;;;;5066893;28;20055;-86
2020/12/07 11:51:35;;;;;;;6.53;4.53;;;6.60;99.90;;;;;;5056322;28;20056;-86
2020/12/07 11:54:04;;;;;;;4.22;3.63;;;6.60;99.90;;;;;;5054117;28;20467;-86
2020/12/07 11:56:38;;;;;;;5.32;4.82;;;6.60;99.90;;;;;;5062217;28;20049;-85
2020/12/07 11:59:08;;;;;;;7.45;3.60;;;6.60;99.90;;;;;;5063138;28;20548;-85
2020/12/07 12:01:36;;;;;;;6.25;4.75;;;6.60;99.90;;;;;;5061597;28;20059;-87
2020/12/07 12:04:07;;;;;;;5.43;3.30;;;6.70;99.90;;;;;;5065093;28;20048;-85
2020/12/07 12:06:39;;;;;;;4.68;3.58;;;6.60;99.90;;;;;;5061612;28;20481;-87
2020/12/07 12:09:11;;;;;;;4.35;3.47;;;6.70;99.90;;;;;;5065397;28;20040;-87
2020/12/07 12:11:41;;;;;;;6.53;3.58;;;6.70;99.90;;;;;;5043335;28;20521;-87
2020/12/07 12:14:11;;;;;;;10.05;5.10;;;6.70;99.90;;;;;;5065884;28;20482;-86
2020/12/07 12:16:39;;;;;;;;;;;6.70;99.90;;;;;;5062223;28;20650;-87
2020/12/07 12:19:11;;;;;;;7.03;4.80;;;6.70;99.90;;;;;;5065397;28;19921;-87
2020/12/07 12:21:40;;;;;;;6.68;3.90;;;6.80;99.90;;;;;;5063234;28;20040;-87
2020/12/07 12:24:11;;;;;;;6.30;5.25;;;6.80;99.90;;;;;;5065016;28;20084;-87
2020/12/07 12:26:40;;;;;;;5.57;4.20;;;6.90;99.90;;;;;;5058223;28;20049;-87
2020/12/07 12:29:08;;;;;;;5.88;4.15;;;6.90;99.90;;;;;;5057275;28;20429;-87
2020/12/07 12:31:39;;;;;;;6.18;4.03;;;7.00;99.90;;;;;;5058278;28;20044;-87
2020/12/07 12:34:10;;;;;;;11.27;9.82;;;7.00;99.90;;;;;;5068413;28;20051;-86
2020/12/07 12:36:39;;;;;;;7.88;7.00;;;7.00;99.90;;;;;;5068012;28;20049;-87
2020/12/07 12:39:08;;;;;;;11.43;9.82;;;7.10;99.90;;;;;;5031513;28;20061;-86
2020/12/07 12:41:39;;;;;;;8.07;4.80;;;7.00;99.90;;;;;;5059580;28;20125;-87
2020/12/07 12:44:14;;;;;;;9.95;8.15;;;7.10;99.90;;;;;;5063157;28;20059;-87
2020/12/07 12:46:44;;;;;;;6.93;5.38;;;7.10;99.90;;;;;;5057835;28;20049;-86
2020/12/07 12:49:14;;;;;;;5.28;4.32;;;7.10;99.90;;;;;;5066818;28;20048;-87
2020/12/07 12:51:45;;;;;;;5.15;3.25;;;7.10;99.90;;;;;;5074783;28;20076;-87
2020/12/07 12:54:15;;;;;;;5.45;4.38;;;7.10;99.90;;;;;;5074051;28;20049;-87
2020/12/07 12:56:45;;;;;;;;;;;7.20;99.90;;;;;;5088444;28;20057;-87
2020/12/07 12:59:14;;;;;;;3.53;2.70;;;7.10;99.90;;;;;;5071034;28;20349;-87
2020/12/07 13:01:45;;;;;;;5.07;3.90;;;7.10;99.90;;;;;;5068226;28;20059;-87
2020/12/07 13:04:13;;;;;;;3.15;2.78;;;7.10;99.90;;;;;;5073175;28;20545;-87
2020/12/07 13:06:42;;;;;;;4.43;3.35;;;7.20;99.90;;;;;;5056190;28;20055;-87
2020/12/07 13:09:12;;;;;;;4.28;2.92;;;7.20;99.90;;;;;;5057586;28;20045;-87
2020/12/07 13:11:40;;;;;;;4.10;2.95;;;7.20;99.90;;;;;;5074334;28;20055;-87
2020/12/07 13:14:08;;;;;;;6.10;3.92;;;7.10;99.90;;;;;;5061223;28;20057;-87
2020/12/07 13:17:26;;;;;;;3.78;2.72;;;7.20;99.90;;;;;;5060209;28;20068;-87
2020/12/07 13:19:29;;;;;;;3.90;2.88;;;7.20;99.90;;;;;;5062102;28;20102;-87
2020/12/07 13:22:45;;;;;;;5.50;5.03;;;7.10;99.90;;;;;;5058585;28;20123;-87
2020/12/07 13:25:05;;;;;;;3.53;2.85;;;7.10;99.90;;;;;;5052384;28;20053;-88
2020/12/07 13:27:49;;;;;;;3.53;2.38;;;7.20;99.90;;;;;;5072844;28;20045;-86
2020/12/07 13:30:19;;;;;;;3.42;2.92;;;7.20;99.90;;;;;;5071411;28;20063;-87
2020/12/07 13:32:48;;;;;;;5.22;3.00;;;7.10;99.90;;;;;;5058712;28;20052;-87
2020/12/07 13:35:18;;;;;;;3.58;3.28;;;7.10;99.90;;;;;;5066708;28;20053;-87
2020/12/07 13:37:47;;;;;;;4.45;2.50;;;7.10;99.90;;;;;;5062817;28;20103;-86
2020/12/07 13:40:16;;;;;;;4.00;3.40;;;7.10;99.90;;;;;;5056394;28;20534;-87
2020/12/07 13:42:48;;;;;;;3.10;2.80;;;7.10;99.90;;;;;;5058871;28;20044;-87
2020/12/07 13:45:18;;;;;;;4.22;2.63;;;7.10;99.90;;;;;;5055236;28;20053;-86
2020/12/07 13:47:48;;;;;;;3.67;2.35;;;7.00;99.90;;;;;;5068735;28;20056;-87